sensor_id;sensor_type;location;lat;lon;timestamp;P1;P2;P0
61760;PMS5003;47664;51.660;-0.100;2023-04-24T00:02:19;57;42;
61760;PMS5003;47664;51.660;-0.100;2023-04-24T00:04:47;52;39;
61760;PMS5003;47664;51.660;-0.100;2023-04-24T00:07:14;46;41;
61760;PMS5003;47664;51.660;-0.100;2023-04-24T00:09:41;54;45;
61760;PMS5003;47664;51.660;-0.100;2023-04-24T00:12:09;51;41;
61760;PMS5003;47664;51.660;-0.100;2023-04-24T00:14:36;49;46;
61760;PMS5003;47664;51.660;-0.100;2023-04-24T00:17:03;48;37;
61760;PMS5003;47664;51.660;-0.100;2023-04-24T00:19:31;50;39;
61760;PMS5003;47664;51.660;-0.100;2023-04-24T00:21:58;47;39;
61760;PMS5003;47664;51.660;-0.100;2023-04-24T00:24:26;46;43;
61760;PMS5003;47664;51.660;-0.100;2023-04-24T00:26:53;52;40;
61760;PMS5003;47664;51.660;-0.100;2023-04-24T00:29:20;51;46;
61760;PMS5003;47664;51.660;-0.100;2023-04-24T00:31:47;51;38;
61760;PMS5003;47664;51.660;-0.100;2023-04-24T00:34:15;51;39;
61760;PMS5003;47664;51.660;-0.100;2023-04-24T00:36:42;45;40;
61760;PMS5003;47664;51.660;-0.100;2023-04-24T00:39:09;48;39;
61760;PMS5003;47664;51.660;-0.100;2023-04-24T00:41:36;43;34;
61760;PMS5003;47664;51.660;-0.100;2023-04-24T00:44:04;44;41;
61760;PMS5003;47664;51.660;-0.100;2023-04-24T00:46:31;47;41;
61760;PMS5003;47664;51.660;-0.100;2023-04-24T00:48:59;39;36;
61760;PMS5003;47664;51.660;-0.100;2023-04-24T00:51:32;41;37;
61760;PMS5003;47664;51.660;-0.100;2023-04-24T00:53:59;42;32;
61760;PMS5003;47664;51.660;-0.100;2023-04-24T00:56:27;48;42;
61760;PMS5003;47664;51.660;-0.100;2023-04-24T00:58:55;43;40;
61760;PMS5003;47664;51.660;-0.100;2023-04-24T01:01:23;43;38;
61760;PMS5003;47664;51.660;-0.100;2023-04-24T01:03:51;40;35;
61760;PMS5003;47664;51.660;-0.100;2023-04-24T01:06:19;43;37;
61760;PMS5003;47664;51.660;-0.100;2023-04-24T01:08:47;43;35;
61760;PMS5003;47664;51.660;-0.100;2023-04-24T01:11:14;44;36;
61760;PMS5003;47664;51.660;-0.100;2023-04-24T01:13:41;52;36;
61760;PMS5003;47664;51.660;-0.100;2023-04-24T01:16:09;45;38;
61760;PMS5003;47664;51.660;-0.100;2023-04-24T01:18:36;44;34;
61760;PMS5003;47664;51.660;-0.100;2023-04-24T01:21:04;37;33;
61760;PMS5003;47664;51.660;-0.100;2023-04-24T01:23:32;42;33;
61760;PMS5003;47664;51.660;-0.100;2023-04-24T01:26:00;39;33;
61760;PMS5003;47664;51.660;-0.100;2023-04-24T01:28:27;41;30;
61760;PMS5003;47664;51.660;-0.100;2023-04-24T01:30:54;33;32;
61760;PMS5003;47664;51.660;-0.100;2023-04-24T01:33:22;47;38;
61760;PMS5003;47664;51.660;-0.100;2023-04-24T01:35:50;46;34;
61760;PMS5003;47664;51.660;-0.100;2023-04-24T01:38:17;33;33;
61760;PMS5003;47664;51.660;-0.100;2023-04-24T01:40:44;39;31;
61760;PMS5003;47664;51.660;-0.100;2023-04-24T01:43:11;34;30;
61760;PMS5003;47664;51.660;-0.100;2023-04-24T01:45:39;39;34;
61760;PMS5003;47664;51.660;-0.100;2023-04-24T01:48:07;39;30;
61760;PMS5003;47664;51.660;-0.100;2023-04-24T01:50:34;34;31;
61760;PMS5003;47664;51.660;-0.100;2023-04-24T01:53:02;33;27;
61760;PMS5003;47664;51.660;-0.100;2023-04-24T01:55:29;37;30;
61760;PMS5003;47664;51.660;-0.100;2023-04-24T01:57:56;35;31;
61760;PMS5003;47664;51.660;-0.100;2023-04-24T02:00:26;30;27;
61760;PMS5003;47664;51.660;-0.100;2023-04-24T02:02:54;37;29;
61760;PMS5003;47664;51.660;-0.100;2023-04-24T02:05:21;40;32;
61760;PMS5003;47664;51.660;-0.100;2023-04-24T02:07:49;31;28;
61760;PMS5003;47664;51.660;-0.100;2023-04-24T02:10:17;34;30;
61760;PMS5003;47664;51.660;-0.100;2023-04-24T02:12:44;43;32;
61760;PMS5003;47664;51.660;-0.100;2023-04-24T02:15:11;35;30;
61760;PMS5003;47664;51.660;-0.100;2023-04-24T02:17:39;43;36;
61760;PMS5003;47664;51.660;-0.100;2023-04-24T02:20:07;34;30;
61760;PMS5003;47664;51.660;-0.100;2023-04-24T02:22:34;34;25;
61760;PMS5003;47664;51.660;-0.100;2023-04-24T02:25:02;29;26;
61760;PMS5003;47664;51.660;-0.100;2023-04-24T02:27:29;34;29;
61760;PMS5003;47664;51.660;-0.100;2023-04-24T02:29:56;34;26;
61760;PMS5003;47664;51.660;-0.100;2023-04-24T02:32:24;29;25;
61760;PMS5003;47664;51.660;-0.100;2023-04-24T02:34:51;34;31;
61760;PMS5003;47664;51.660;-0.100;2023-04-24T02:37:18;37;33;
61760;PMS5003;47664;51.660;-0.100;2023-04-24T02:39:45;30;24;
61760;PMS5003;47664;51.660;-0.100;2023-04-24T02:42:12;35;27;
61760;PMS5003;47664;51.660;-0.100;2023-04-24T02:44:39;44;38;
61760;PMS5003;47664;51.660;-0.100;2023-04-24T02:47:06;38;32;
61760;PMS5003;47664;51.660;-0.100;2023-04-24T02:49:33;44;35;
61760;PMS5003;47664;51.660;-0.100;2023-04-24T02:52:00;36;30;
61760;PMS5003;47664;51.660;-0.100;2023-04-24T02:54:28;39;32;
61760;PMS5003;47664;51.660;-0.100;2023-04-24T02:56:55;37;28;
61760;PMS5003;47664;51.660;-0.100;2023-04-24T02:59:22;28;24;
61760;PMS5003;47664;51.660;-0.100;2023-04-24T03:01:49;33;28;
61760;PMS5003;47664;51.660;-0.100;2023-04-24T03:04:17;30;22;
61760;PMS5003;47664;51.660;-0.100;2023-04-24T03:06:43;22;18;
61760;PMS5003;47664;51.660;-0.100;2023-04-24T03:09:10;16;16;
61760;PMS5003;47664;51.660;-0.100;2023-04-24T03:11:38;26;19;
61760;PMS5003;47664;51.660;-0.100;2023-04-24T03:14:05;18;16;
61760;PMS5003;47664;51.660;-0.100;2023-04-24T03:16:32;30;20;
61760;PMS5003;47664;51.660;-0.100;2023-04-24T03:18:59;22;17;
61760;PMS5003;47664;51.660;-0.100;2023-04-24T03:21:26;23;18;
61760;PMS5003;47664;51.660;-0.100;2023-04-24T03:23:54;20;16;
61760;PMS5003;47664;51.660;-0.100;2023-04-24T03:26:21;27;22;
61760;PMS5003;47664;51.660;-0.100;2023-04-24T03:28:48;19;17;
61760;PMS5003;47664;51.660;-0.100;2023-04-24T03:31:15;29;21;
61760;PMS5003;47664;51.660;-0.100;2023-04-24T03:33:43;21;17;
61760;PMS5003;47664;51.660;-0.100;2023-04-24T03:36:11;20;17;
61760;PMS5003;47664;51.660;-0.100;2023-04-24T03:38:38;20;18;
61760;PMS5003;47664;51.660;-0.100;2023-04-24T03:41:05;23;18;
61760;PMS5003;47664;51.660;-0.100;2023-04-24T03:43:33;19;18;
61760;PMS5003;47664;51.660;-0.100;2023-04-24T03:46:01;21;19;
61760;PMS5003;47664;51.660;-0.100;2023-04-24T03:48:28;22;17;
61760;PMS5003;47664;51.660;-0.100;2023-04-24T03:50:56;19;16;
61760;PMS5003;47664;51.660;-0.100;2023-04-24T03:53:23;19;14;
61760;PMS5003;47664;51.660;-0.100;2023-04-24T03:55:50;22;16;
61760;PMS5003;47664;51.660;-0.100;2023-04-24T03:58:17;18;16;
61760;PMS5003;47664;51.660;-0.100;2023-04-24T04:00:43;13;13;
61760;PMS5003;47664;51.660;-0.100;2023-04-24T04:03:11;21;21;
61760;PMS5003;47664;51.660;-0.100;2023-04-24T04:05:38;20;20;
61760;PMS5003;47664;51.660;-0.100;2023-04-24T04:08:05;23;17;
61760;PMS5003;47664;51.660;-0.100;2023-04-24T04:10:32;20;17;
61760;PMS5003;47664;51.660;-0.100;2023-04-24T04:13:00;22;17;
61760;PMS5003;47664;51.660;-0.100;2023-04-24T04:15:27;26;19;
61760;PMS5003;47664;51.660;-0.100;2023-04-24T04:17:55;19;14;
61760;PMS5003;47664;51.660;-0.100;2023-04-24T04:20:22;20;15;
61760;PMS5003;47664;51.660;-0.100;2023-04-24T04:22:49;17;15;
61760;PMS5003;47664;51.660;-0.100;2023-04-24T04:25:16;26;21;
61760;PMS5003;47664;51.660;-0.100;2023-04-24T04:27:43;22;18;
61760;PMS5003;47664;51.660;-0.100;2023-04-24T04:30:11;18;16;
61760;PMS5003;47664;51.660;-0.100;2023-04-24T04:32:38;19;17;
61760;PMS5003;47664;51.660;-0.100;2023-04-24T04:35:05;15;15;
61760;PMS5003;47664;51.660;-0.100;2023-04-24T04:37:33;21;19;
61760;PMS5003;47664;51.660;-0.100;2023-04-24T04:40:01;21;16;
61760;PMS5003;47664;51.660;-0.100;2023-04-24T04:42:29;19;16;
61760;PMS5003;47664;51.660;-0.100;2023-04-24T04:44:57;24;21;
61760;PMS5003;47664;51.660;-0.100;2023-04-24T04:47:24;23;22;
61760;PMS5003;47664;51.660;-0.100;2023-04-24T04:49:52;23;17;
61760;PMS5003;47664;51.660;-0.100;2023-04-24T04:52:21;16;15;
61760;PMS5003;47664;51.660;-0.100;2023-04-24T04:54:48;19;19;
61760;PMS5003;47664;51.660;-0.100;2023-04-24T04:57:15;21;17;
61760;PMS5003;47664;51.660;-0.100;2023-04-24T04:59:42;16;15;
61760;PMS5003;47664;51.660;-0.100;2023-04-24T05:02:09;11;8;
61760;PMS5003;47664;51.660;-0.100;2023-04-24T05:04:36;9;6;
61760;PMS5003;47664;51.660;-0.100;2023-04-24T05:07:04;12;8;
61760;PMS5003;47664;51.660;-0.100;2023-04-24T05:09:31;10;9;
61760;PMS5003;47664;51.660;-0.100;2023-04-24T05:11:59;9;8;
61760;PMS5003;47664;51.660;-0.100;2023-04-24T05:14:26;9;8;
61760;PMS5003;47664;51.660;-0.100;2023-04-24T05:16:54;7;6;
61760;PMS5003;47664;51.660;-0.100;2023-04-24T05:19:21;7;7;
61760;PMS5003;47664;51.660;-0.100;2023-04-24T05:21:48;5;4;
61760;PMS5003;47664;51.660;-0.100;2023-04-24T05:24:15;5;3;
61760;PMS5003;47664;51.660;-0.100;2023-04-24T05:26:43;6;4;
61760;PMS5003;47664;51.660;-0.100;2023-04-24T05:29:10;7;4;
61760;PMS5003;47664;51.660;-0.100;2023-04-24T05:31:37;5;4;
61760;PMS5003;47664;51.660;-0.100;2023-04-24T05:34:04;7;5;
61760;PMS5003;47664;51.660;-0.100;2023-04-24T05:36:31;4;4;
61760;PMS5003;47664;51.660;-0.100;2023-04-24T05:38:59;4;4;
61760;PMS5003;47664;51.660;-0.100;2023-04-24T05:41:26;7;5;
61760;PMS5003;47664;51.660;-0.100;2023-04-24T05:43:53;7;6;
61760;PMS5003;47664;51.660;-0.100;2023-04-24T05:46:21;4;4;
61760;PMS5003;47664;51.660;-0.100;2023-04-24T05:48:48;6;6;
61760;PMS5003;47664;51.660;-0.100;2023-04-24T05:51:20;7;5;
61760;PMS5003;47664;51.660;-0.100;2023-04-24T05:53:47;6;5;
61760;PMS5003;47664;51.660;-0.100;2023-04-24T05:56:15;4;4;
61760;PMS5003;47664;51.660;-0.100;2023-04-24T05:58:42;6;4;
61760;PMS5003;47664;51.660;-0.100;2023-04-24T06:01:09;8;5;
61760;PMS5003;47664;51.660;-0.100;2023-04-24T06:03:37;3;3;
61760;PMS5003;47664;51.660;-0.100;2023-04-24T06:06:05;5;4;
61760;PMS5003;47664;51.660;-0.100;2023-04-24T06:08:32;4;3;
61760;PMS5003;47664;51.660;-0.100;2023-04-24T06:11:00;5;3;
61760;PMS5003;47664;51.660;-0.100;2023-04-24T06:13:27;6;4;
61760;PMS5003;47664;51.660;-0.100;2023-04-24T06:15:55;4;2;
61760;PMS5003;47664;51.660;-0.100;2023-04-24T06:18:22;3;3;
61760;PMS5003;47664;51.660;-0.100;2023-04-24T06:20:49;4;4;
61760;PMS5003;47664;51.660;-0.100;2023-04-24T06:23:16;7;4;
61760;PMS5003;47664;51.660;-0.100;2023-04-24T06:25:43;6;4;
61760;PMS5003;47664;51.660;-0.100;2023-04-24T06:28:12;5;3;
61760;PMS5003;47664;51.660;-0.100;2023-04-24T06:30:39;6;4;
61760;PMS5003;47664;51.660;-0.100;2023-04-24T06:33:06;6;4;
61760;PMS5003;47664;51.660;-0.100;2023-04-24T06:35:33;5;4;
61760;PMS5003;47664;51.660;-0.100;2023-04-24T06:38:02;9;4;
61760;PMS5003;47664;51.660;-0.100;2023-04-24T06:40:29;8;5;
61760;PMS5003;47664;51.660;-0.100;2023-04-24T06:42:57;4;4;
61760;PMS5003;47664;51.660;-0.100;2023-04-24T06:45:24;4;4;
61760;PMS5003;47664;51.660;-0.100;2023-04-24T06:47:51;4;4;
61760;PMS5003;47664;51.660;-0.100;2023-04-24T06:50:18;4;4;
61760;PMS5003;47664;51.660;-0.100;2023-04-24T06:52:45;5;3;
61760;PMS5003;47664;51.660;-0.100;2023-04-24T06:55:12;9;5;
61760;PMS5003;47664;51.660;-0.100;2023-04-24T06:57:39;3;3;
61760;PMS5003;47664;51.660;-0.100;2023-04-24T07:00:08;7;4;
61760;PMS5003;47664;51.660;-0.100;2023-04-24T07:02:36;6;5;
61760;PMS5003;47664;51.660;-0.100;2023-04-24T07:05:04;7;4;
61760;PMS5003;47664;51.660;-0.100;2023-04-24T07:07:32;11;7;
61760;PMS5003;47664;51.660;-0.100;2023-04-24T07:10:00;9;5;
61760;PMS5003;47664;51.660;-0.100;2023-04-24T07:12:27;10;4;
61760;PMS5003;47664;51.660;-0.100;2023-04-24T07:14:55;9;6;
61760;PMS5003;47664;51.660;-0.100;2023-04-24T07:17:22;4;4;
61760;PMS5003;47664;51.660;-0.100;2023-04-24T07:19:50;4;3;
61760;PMS5003;47664;51.660;-0.100;2023-04-24T07:22:17;5;4;
61760;PMS5003;47664;51.660;-0.100;2023-04-24T07:24:45;7;3;
61760;PMS5003;47664;51.660;-0.100;2023-04-24T07:27:13;7;4;
61760;PMS5003;47664;51.660;-0.100;2023-04-24T07:29:40;7;2;
61760;PMS5003;47664;51.660;-0.100;2023-04-24T07:32:08;6;6;
61760;PMS5003;47664;51.660;-0.100;2023-04-24T07:34:35;6;5;
61760;PMS5003;47664;51.660;-0.100;2023-04-24T07:37:03;5;5;
61760;PMS5003;47664;51.660;-0.100;2023-04-24T07:39:30;5;4;
61760;PMS5003;47664;51.660;-0.100;2023-04-24T07:41:58;4;4;
61760;PMS5003;47664;51.660;-0.100;2023-04-24T07:44:25;5;3;
61760;PMS5003;47664;51.660;-0.100;2023-04-24T07:46:53;3;2;
61760;PMS5003;47664;51.660;-0.100;2023-04-24T07:49:20;2;2;
61760;PMS5003;47664;51.660;-0.100;2023-04-24T07:51:47;5;4;
61760;PMS5003;47664;51.660;-0.100;2023-04-24T07:54:15;3;3;
61760;PMS5003;47664;51.660;-0.100;2023-04-24T07:56:43;11;8;
61760;PMS5003;47664;51.660;-0.100;2023-04-24T07:59:10;6;3;
61760;PMS5003;47664;51.660;-0.100;2023-04-24T08:01:38;4;4;
61760;PMS5003;47664;51.660;-0.100;2023-04-24T08:04:05;3;3;
61760;PMS5003;47664;51.660;-0.100;2023-04-24T08:06:32;4;4;
61760;PMS5003;47664;51.660;-0.100;2023-04-24T08:09:00;4;3;
61760;PMS5003;47664;51.660;-0.100;2023-04-24T08:11:28;2;2;
61760;PMS5003;47664;51.660;-0.100;2023-04-24T08:13:55;2;1;
61760;PMS5003;47664;51.660;-0.100;2023-04-24T08:16:23;9;7;
61760;PMS5003;47664;51.660;-0.100;2023-04-24T08:18:50;3;3;
61760;PMS5003;47664;51.660;-0.100;2023-04-24T08:21:18;2;2;
61760;PMS5003;47664;51.660;-0.100;2023-04-24T08:23:45;5;4;
61760;PMS5003;47664;51.660;-0.100;2023-04-24T08:26:12;5;3;
61760;PMS5003;47664;51.660;-0.100;2023-04-24T08:28:44;6;4;
61760;PMS5003;47664;51.660;-0.100;2023-04-24T08:31:11;6;4;
61760;PMS5003;47664;51.660;-0.100;2023-04-24T08:33:39;3;3;
61760;PMS5003;47664;51.660;-0.100;2023-04-24T08:36:07;6;3;
61760;PMS5003;47664;51.660;-0.100;2023-04-24T08:38:34;5;3;
61760;PMS5003;47664;51.660;-0.100;2023-04-24T08:41:06;6;3;
61760;PMS5003;47664;51.660;-0.100;2023-04-24T08:43:36;6;4;
61760;PMS5003;47664;51.660;-0.100;2023-04-24T08:46:05;7;6;
61760;PMS5003;47664;51.660;-0.100;2023-04-24T08:48:32;6;5;
61760;PMS5003;47664;51.660;-0.100;2023-04-24T08:51:00;7;4;
61760;PMS5003;47664;51.660;-0.100;2023-04-24T08:53:29;2;2;
61760;PMS5003;47664;51.660;-0.100;2023-04-24T08:55:56;8;4;
61760;PMS5003;47664;51.660;-0.100;2023-04-24T08:58:24;5;4;
61760;PMS5003;47664;51.660;-0.100;2023-04-24T09:00:54;5;5;
61760;PMS5003;47664;51.660;-0.100;2023-04-24T09:03:22;2;1;
61760;PMS5003;47664;51.660;-0.100;2023-04-24T09:05:50;3;3;
61760;PMS5003;47664;51.660;-0.100;2023-04-24T09:08:19;5;5;
61760;PMS5003;47664;51.660;-0.100;2023-04-24T09:10:50;3;2;
61760;PMS5003;47664;51.660;-0.100;2023-04-24T09:13:18;4;4;
61760;PMS5003;47664;51.660;-0.100;2023-04-24T09:15:46;4;3;
61760;PMS5003;47664;51.660;-0.100;2023-04-24T09:18:13;3;3;
61760;PMS5003;47664;51.660;-0.100;2023-04-24T09:21:13;4;4;
61760;PMS5003;47664;51.660;-0.100;2023-04-24T09:23:40;4;3;
61760;PMS5003;47664;51.660;-0.100;2023-04-24T09:26:08;2;2;
61760;PMS5003;47664;51.660;-0.100;2023-04-24T09:28:36;6;3;
61760;PMS5003;47664;51.660;-0.100;2023-04-24T09:31:06;4;2;
61760;PMS5003;47664;51.660;-0.100;2023-04-24T09:33:35;3;3;
61760;PMS5003;47664;51.660;-0.100;2023-04-24T09:36:03;2;2;
61760;PMS5003;47664;51.660;-0.100;2023-04-24T09:38:31;3;3;
61760;PMS5003;47664;51.660;-0.100;2023-04-24T09:41:00;5;3;
61760;PMS5003;47664;51.660;-0.100;2023-04-24T09:43:28;2;2;
61760;PMS5003;47664;51.660;-0.100;2023-04-24T09:45:55;5;2;
61760;PMS5003;47664;51.660;-0.100;2023-04-24T09:48:32;2;2;
61760;PMS5003;47664;51.660;-0.100;2023-04-24T09:51:01;6;4;
61760;PMS5003;47664;51.660;-0.100;2023-04-24T09:53:30;4;3;
61760;PMS5003;47664;51.660;-0.100;2023-04-24T09:56:01;5;2;
61760;PMS5003;47664;51.660;-0.100;2023-04-24T09:58:29;5;3;
61760;PMS5003;47664;51.660;-0.100;2023-04-24T10:00:57;4;3;
61760;PMS5003;47664;51.660;-0.100;2023-04-24T10:03:24;3;3;
61760;PMS5003;47664;51.660;-0.100;2023-04-24T10:05:52;6;5;
61760;PMS5003;47664;51.660;-0.100;2023-04-24T10:08:20;5;2;
61760;PMS5003;47664;51.660;-0.100;2023-04-24T10:10:48;4;3;
61760;PMS5003;47664;51.660;-0.100;2023-04-24T10:13:15;6;3;
61760;PMS5003;47664;51.660;-0.100;2023-04-24T10:15:43;6;4;
61760;PMS5003;47664;51.660;-0.100;2023-04-24T10:18:11;4;4;
61760;PMS5003;47664;51.660;-0.100;2023-04-24T10:20:39;6;3;
61760;PMS5003;47664;51.660;-0.100;2023-04-24T10:23:07;3;3;
61760;PMS5003;47664;51.660;-0.100;2023-04-24T10:25:35;3;3;
61760;PMS5003;47664;51.660;-0.100;2023-04-24T10:28:03;8;7;
61760;PMS5003;47664;51.660;-0.100;2023-04-24T10:30:36;4;4;
61760;PMS5003;47664;51.660;-0.100;2023-04-24T10:33:03;5;2;
61760;PMS5003;47664;51.660;-0.100;2023-04-24T10:35:32;6;3;
61760;PMS5003;47664;51.660;-0.100;2023-04-24T10:38:03;4;4;
61760;PMS5003;47664;51.660;-0.100;2023-04-24T10:40:35;4;4;
61760;PMS5003;47664;51.660;-0.100;2023-04-24T10:43:03;4;2;
61760;PMS5003;47664;51.660;-0.100;2023-04-24T10:45:32;5;4;
61760;PMS5003;47664;51.660;-0.100;2023-04-24T10:48:01;3;3;
61760;PMS5003;47664;51.660;-0.100;2023-04-24T10:50:30;7;5;
61760;PMS5003;47664;51.660;-0.100;2023-04-24T10:53:13;1;1;
61760;PMS5003;47664;51.660;-0.100;2023-04-24T10:55:42;4;1;
61760;PMS5003;47664;51.660;-0.100;2023-04-24T10:58:11;4;3;
61760;PMS5003;47664;51.660;-0.100;2023-04-24T11:00:38;3;3;
61760;PMS5003;47664;51.660;-0.100;2023-04-24T11:03:07;2;2;
61760;PMS5003;47664;51.660;-0.100;2023-04-24T11:05:50;6;4;
61760;PMS5003;47664;51.660;-0.100;2023-04-24T11:08:24;3;3;
61760;PMS5003;47664;51.660;-0.100;2023-04-24T11:10:55;4;2;
61760;PMS5003;47664;51.660;-0.100;2023-04-24T11:13:24;4;4;
61760;PMS5003;47664;51.660;-0.100;2023-04-24T11:16:31;7;4;
61760;PMS5003;47664;51.660;-0.100;2023-04-24T11:19:01;4;4;
61760;PMS5003;47664;51.660;-0.100;2023-04-24T11:21:31;4;4;
61760;PMS5003;47664;51.660;-0.100;2023-04-24T11:24:21;3;3;
61760;PMS5003;47664;51.660;-0.100;2023-04-24T11:26:54;4;3;
61760;PMS5003;47664;51.660;-0.100;2023-04-24T11:29:22;5;4;
61760;PMS5003;47664;51.660;-0.100;2023-04-24T11:32:14;9;6;
61760;PMS5003;47664;51.660;-0.100;2023-04-24T11:34:42;3;3;
61760;PMS5003;47664;51.660;-0.100;2023-04-24T11:37:12;5;4;
61760;PMS5003;47664;51.660;-0.100;2023-04-24T11:39:40;4;4;
61760;PMS5003;47664;51.660;-0.100;2023-04-24T11:42:07;5;5;
61760;PMS5003;47664;51.660;-0.100;2023-04-24T11:44:35;9;8;
61760;PMS5003;47664;51.660;-0.100;2023-04-24T11:47:03;5;5;
61760;PMS5003;47664;51.660;-0.100;2023-04-24T11:49:31;4;4;
61760;PMS5003;47664;51.660;-0.100;2023-04-24T11:51:59;6;3;
61760;PMS5003;47664;51.660;-0.100;2023-04-24T11:54:27;6;4;
61760;PMS5003;47664;51.660;-0.100;2023-04-24T11:56:55;8;5;
61760;PMS5003;47664;51.660;-0.100;2023-04-24T11:59:23;5;5;
61760;PMS5003;47664;51.660;-0.100;2023-04-24T12:01:50;9;9;
61760;PMS5003;47664;51.660;-0.100;2023-04-24T12:04:17;6;3;
61760;PMS5003;47664;51.660;-0.100;2023-04-24T12:07:00;4;2;
61760;PMS5003;47664;51.660;-0.100;2023-04-24T12:09:28;6;4;
61760;PMS5003;47664;51.660;-0.100;2023-04-24T12:11:55;6;5;
61760;PMS5003;47664;51.660;-0.100;2023-04-24T12:14:23;4;4;
61760;PMS5003;47664;51.660;-0.100;2023-04-24T12:16:50;4;2;
61760;PMS5003;47664;51.660;-0.100;2023-04-24T12:19:18;5;4;
61760;PMS5003;47664;51.660;-0.100;2023-04-24T12:21:58;3;3;
61760;PMS5003;47664;51.660;-0.100;2023-04-24T12:24:26;3;3;
61760;PMS5003;47664;51.660;-0.100;2023-04-24T12:26:54;2;2;
61760;PMS5003;47664;51.660;-0.100;2023-04-24T12:29:21;7;4;
61760;PMS5003;47664;51.660;-0.100;2023-04-24T12:31:48;4;4;
61760;PMS5003;47664;51.660;-0.100;2023-04-24T12:34:17;6;5;
61760;PMS5003;47664;51.660;-0.100;2023-04-24T12:36:45;6;3;
61760;PMS5003;47664;51.660;-0.100;2023-04-24T12:39:15;3;3;
61760;PMS5003;47664;51.660;-0.100;2023-04-24T12:41:54;4;4;
61760;PMS5003;47664;51.660;-0.100;2023-04-24T12:44:28;5;4;
61760;PMS5003;47664;51.660;-0.100;2023-04-24T12:46:57;6;5;
61760;PMS5003;47664;51.660;-0.100;2023-04-24T12:49:24;5;4;
61760;PMS5003;47664;51.660;-0.100;2023-04-24T12:51:52;3;3;
61760;PMS5003;47664;51.660;-0.100;2023-04-24T12:54:21;2;2;
61760;PMS5003;47664;51.660;-0.100;2023-04-24T12:56:50;1;1;
61760;PMS5003;47664;51.660;-0.100;2023-04-24T12:59:17;1;1;
61760;PMS5003;47664;51.660;-0.100;2023-04-24T13:01:45;6;3;
61760;PMS5003;47664;51.660;-0.100;2023-04-24T13:04:12;4;3;
61760;PMS5003;47664;51.660;-0.100;2023-04-24T13:06:39;7;4;
61760;PMS5003;47664;51.660;-0.100;2023-04-24T13:09:06;6;3;
61760;PMS5003;47664;51.660;-0.100;2023-04-24T13:11:33;1;1;
61760;PMS5003;47664;51.660;-0.100;2023-04-24T13:14:00;3;3;
61760;PMS5003;47664;51.660;-0.100;2023-04-24T13:16:28;2;2;
61760;PMS5003;47664;51.660;-0.100;2023-04-24T13:18:55;2;2;
61760;PMS5003;47664;51.660;-0.100;2023-04-24T13:21:22;2;2;
61760;PMS5003;47664;51.660;-0.100;2023-04-24T13:23:49;5;5;
61760;PMS5003;47664;51.660;-0.100;2023-04-24T13:26:16;4;3;
61760;PMS5003;47664;51.660;-0.100;2023-04-24T13:28:43;4;4;
61760;PMS5003;47664;51.660;-0.100;2023-04-24T13:31:10;4;2;
61760;PMS5003;47664;51.660;-0.100;2023-04-24T13:33:37;5;4;
61760;PMS5003;47664;51.660;-0.100;2023-04-24T13:36:05;8;4;
61760;PMS5003;47664;51.660;-0.100;2023-04-24T13:38:32;2;2;
61760;PMS5003;47664;51.660;-0.100;2023-04-24T13:40:59;4;3;
61760;PMS5003;47664;51.660;-0.100;2023-04-24T13:43:27;6;2;
61760;PMS5003;47664;51.660;-0.100;2023-04-24T13:45:54;7;3;
61760;PMS5003;47664;51.660;-0.100;2023-04-24T13:48:27;2;1;
61760;PMS5003;47664;51.660;-0.100;2023-04-24T13:50:54;2;2;
61760;PMS5003;47664;51.660;-0.100;2023-04-24T13:53:21;6;3;
61760;PMS5003;47664;51.660;-0.100;2023-04-24T13:55:48;2;2;
61760;PMS5003;47664;51.660;-0.100;2023-04-24T13:58:15;4;2;
61760;PMS5003;47664;51.660;-0.100;2023-04-24T14:00:42;2;2;
61760;PMS5003;47664;51.660;-0.100;2023-04-24T14:03:09;2;2;
61760;PMS5003;47664;51.660;-0.100;2023-04-24T14:05:36;4;3;
61760;PMS5003;47664;51.660;-0.100;2023-04-24T14:08:03;6;2;
61760;PMS5003;47664;51.660;-0.100;2023-04-24T14:10:30;2;2;
61760;PMS5003;47664;51.660;-0.100;2023-04-24T14:12:58;4;3;
61760;PMS5003;47664;51.660;-0.100;2023-04-24T14:15:25;3;2;
61760;PMS5003;47664;51.660;-0.100;2023-04-24T14:17:52;5;4;
61760;PMS5003;47664;51.660;-0.100;2023-04-24T14:20:19;5;3;
61760;PMS5003;47664;51.660;-0.100;2023-04-24T14:22:49;5;3;
61760;PMS5003;47664;51.660;-0.100;2023-04-24T14:25:16;4;3;
61760;PMS5003;47664;51.660;-0.100;2023-04-24T14:27:44;4;3;
61760;PMS5003;47664;51.660;-0.100;2023-04-24T14:30:11;1;1;
61760;PMS5003;47664;51.660;-0.100;2023-04-24T14:32:39;4;4;
61760;PMS5003;47664;51.660;-0.100;2023-04-24T14:35:06;2;2;
61760;PMS5003;47664;51.660;-0.100;2023-04-24T14:37:34;2;2;
61760;PMS5003;47664;51.660;-0.100;2023-04-24T14:40:02;4;4;
61760;PMS5003;47664;51.660;-0.100;2023-04-24T14:42:30;2;1;
61760;PMS5003;47664;51.660;-0.100;2023-04-24T14:44:57;4;2;
61760;PMS5003;47664;51.660;-0.100;2023-04-24T14:47:24;2;1;
61760;PMS5003;47664;51.660;-0.100;2023-04-24T14:49:52;4;2;
61760;PMS5003;47664;51.660;-0.100;2023-04-24T14:52:19;6;3;
61760;PMS5003;47664;51.660;-0.100;2023-04-24T14:54:47;7;5;
61760;PMS5003;47664;51.660;-0.100;2023-04-24T14:57:14;6;4;
61760;PMS5003;47664;51.660;-0.100;2023-04-24T14:59:41;8;4;
61760;PMS5003;47664;51.660;-0.100;2023-04-24T15:02:08;3;3;
61760;PMS5003;47664;51.660;-0.100;2023-04-24T15:04:36;3;3;
61760;PMS5003;47664;51.660;-0.100;2023-04-24T15:07:03;6;6;
61760;PMS5003;47664;51.660;-0.100;2023-04-24T15:09:30;5;3;
61760;PMS5003;47664;51.660;-0.100;2023-04-24T15:11:58;5;3;
61760;PMS5003;47664;51.660;-0.100;2023-04-24T15:14:30;4;4;
61760;PMS5003;47664;51.660;-0.100;2023-04-24T15:16:58;5;5;
61760;PMS5003;47664;51.660;-0.100;2023-04-24T15:19:25;5;5;
61760;PMS5003;47664;51.660;-0.100;2023-04-24T15:21:53;3;3;
61760;PMS5003;47664;51.660;-0.100;2023-04-24T15:24:20;3;3;
61760;PMS5003;47664;51.660;-0.100;2023-04-24T15:26:47;5;4;
61760;PMS5003;47664;51.660;-0.100;2023-04-24T15:29:14;4;4;
61760;PMS5003;47664;51.660;-0.100;2023-04-24T15:31:41;3;3;
61760;PMS5003;47664;51.660;-0.100;2023-04-24T15:34:08;3;3;
61760;PMS5003;47664;51.660;-0.100;2023-04-24T15:36:35;7;4;
61760;PMS5003;47664;51.660;-0.100;2023-04-24T15:39:02;9;6;
61760;PMS5003;47664;51.660;-0.100;2023-04-24T15:41:29;3;3;
61760;PMS5003;47664;51.660;-0.100;2023-04-24T15:43:57;5;5;
61760;PMS5003;47664;51.660;-0.100;2023-04-24T15:46:24;7;4;
61760;PMS5003;47664;51.660;-0.100;2023-04-24T15:48:53;8;4;
61760;PMS5003;47664;51.660;-0.100;2023-04-24T15:51:20;6;3;
61760;PMS5003;47664;51.660;-0.100;2023-04-24T15:53:47;4;4;
61760;PMS5003;47664;51.660;-0.100;2023-04-24T15:56:14;4;4;
61760;PMS5003;47664;51.660;-0.100;2023-04-24T15:58:41;9;6;
61760;PMS5003;47664;51.660;-0.100;2023-04-24T16:01:08;5;5;
61760;PMS5003;47664;51.660;-0.100;2023-04-24T16:03:35;4;4;
61760;PMS5003;47664;51.660;-0.100;2023-04-24T16:06:03;11;6;
61760;PMS5003;47664;51.660;-0.100;2023-04-24T16:08:30;7;5;
61760;PMS5003;47664;51.660;-0.100;2023-04-24T16:10:57;7;5;
61760;PMS5003;47664;51.660;-0.100;2023-04-24T16:13:24;6;6;
61760;PMS5003;47664;51.660;-0.100;2023-04-24T16:15:51;6;6;
61760;PMS5003;47664;51.660;-0.100;2023-04-24T16:18:18;10;8;
61760;PMS5003;47664;51.660;-0.100;2023-04-24T16:20:45;6;6;
61760;PMS5003;47664;51.660;-0.100;2023-04-24T16:23:12;7;7;
61760;PMS5003;47664;51.660;-0.100;2023-04-24T16:25:39;11;8;
61760;PMS5003;47664;51.660;-0.100;2023-04-24T16:28:06;7;7;
61760;PMS5003;47664;51.660;-0.100;2023-04-24T16:30:33;12;7;